Time;durP1;ratioP1;P1;durP2;ratioP2;P2;SDS_P1;SDS_P2;PMS_P1;PMS_P2;Temp;Humidity;BMP_temperature;BMP_pressure;BME280_temperature;BME280_humidity;BME280_pressure;Samples;Min_cycle;Max_cycle;Signal;HPM_P1;HPM_P2
2022/05/06 00:01:46;;;;;;;7.53;5.33;;;;;;;14.64;89.72;95815.22;4389172;32;20246;-58
2022/05/06 00:04:16;;;;;;;7.57;6.77;;;;;;;14.80;88.19;95808.37;4389719;32;20214;-58
2022/05/06 00:06:42;;;;;;;5.03;4.07;;;;;;;14.89;88.28;95801.19;4391151;32;20255;-59
2022/05/06 00:09:09;;;;;;;5.43;3.77;;;;;;;14.95;88.56;95794.63;4377466;32;20187;-59
2022/05/06 00:11:35;;;;;;;5.63;5.03;;;;;;;14.51;88.23;95800.84;4383906;32;20271;-59
2022/05/06 00:14:00;;;;;;;10.33;6.10;;;;;;;14.50;89.58;95809.97;4406937;32;20192;-59
2022/05/06 00:16:27;;;;;;;7.43;5.60;;;;;;;14.74;90.02;95820.28;4353834;32;20183;-59
2022/05/06 00:18:54;;;;;;;6.40;4.73;;;;;;;14.96;89.40;95806.88;4381794;32;20228;-59
2022/05/06 00:21:21;;;;;;;5.83;4.90;;;;;;;14.82;89.55;95808.84;4389534;32;20232;-59
2022/05/06 00:23:47;;;;;;;6.03;5.43;;;;;;;14.80;89.73;95808.37;4373609;32;20197;-59
2022/05/06 00:26:12;;;;;;;5.30;4.67;;;;;;;14.73;90.09;95808.03;4382692;32;20210;-60
2022/05/06 00:28:39;;;;;;;7.60;6.10;;;;;;;14.60;90.33;95798.22;4369586;32;20231;-59
2022/05/06 00:31:09;;;;;;;7.50;6.20;;;;;;;14.71;90.35;95794.19;4371332;32;20286;-59
2022/05/06 00:33:36;;;;;;;6.03;5.47;;;;;;;14.93;89.97;95786.13;4377468;32;20192;-60
2022/05/06 00:36:08;;;;;;;3.13;2.53;;;;;;;14.62;90.78;95801.37;4388179;32;20249;-60
2022/05/06 00:38:33;;;;;;;2.27;1.73;;;;;;;14.65;90.25;95787.41;4369284;32;20225;-59
2022/05/06 00:40:58;;;;;;;5.37;4.10;;;;;;;14.57;89.84;95788.13;4376516;32;20192;-61
2022/05/06 00:43:25;;;;;;;3.23;3.03;;;;;;;14.24;89.86;95788.41;4381012;32;20260;-60
2022/05/06 00:45:53;;;;;;;4.23;3.80;;;;;;;14.17;92.43;95784.59;4395612;32;20204;-60
2022/05/06 00:48:27;;;;;;;7.00;4.63;;;;;;;14.26;92.70;95783.56;4374799;32;20200;-60
2022/05/06 00:50:55;;;;;;;3.33;2.60;;;;;;;14.25;91.69;95784.66;4390303;32;20240;-59
2022/05/06 00:53:22;;;;;;;5.97;4.43;;;;;;;13.91;91.73;95787.88;4388693;32;20189;-60
2022/05/06 00:55:49;;;;;;;3.87;3.57;;;;;;;14.15;92.33;95782.22;4390156;32;20193;-59
2022/05/06 00:58:16;;;;;;;4.80;3.30;;;;;;;14.21;92.31;95773.00;4381276;32;20227;-59
2022/05/06 01:00:41;;;;;;;5.70;3.90;;;;;;;14.19;91.52;95777.84;4378323;32;20177;-62
2022/05/06 01:03:06;;;;;;;4.87;3.90;;;;;;;14.27;91.16;95769.13;4373223;32;20219;-59
2022/05/06 01:05:33;;;;;;;4.63;4.23;;;;;;;14.21;91.18;95764.22;4375678;32;20230;-59
2022/05/06 01:08:01;;;;;;;3.47;3.17;;;;;;;14.28;91.08;95770.69;4391033;32;20206;-59
2022/05/06 01:10:29;;;;;;;5.03;4.03;;;;;;;14.34;91.46;95766.03;4389906;32;20200;-59
2022/05/06 01:12:54;;;;;;;4.03;3.57;;;;;;;14.42;91.80;95755.41;4375582;32;20193;-59
2022/05/06 01:15:28;;;;;;;6.90;3.40;;;;;;;14.39;91.39;95747.19;4379897;32;20270;-59
2022/05/06 01:17:58;;;;;;;1.60;1.50;;;;;;;14.50;90.85;95753.09;4379992;32;20210;-59
2022/05/06 01:20:26;;;;;;;4.20;3.80;;;;;;;14.52;89.79;95756.25;4373179;32;20189;-59
2022/05/06 01:23:00;;;;;;;4.80;3.40;;;;;;;14.48;90.56;95741.94;4371645;32;20241;-59
2022/05/06 01:25:26;;;;;;;3.90;3.30;;;;;;;14.44;90.56;95750.56;4386839;32;20180;-59
2022/05/06 01:28:01;;;;;;;3.73;3.10;;;;;;;14.51;90.71;95746.66;4343727;32;20240;-59
2022/05/06 01:30:36;;;;;;;3.90;3.50;;;;;;;14.52;91.06;95743.69;4380620;32;20207;-59
2022/05/06 01:33:05;;;;;;;4.23;3.83;;;;;;;14.42;90.77;95747.41;4381907;32;20277;-59
2022/05/06 01:35:45;;;;;;;5.03;4.13;;;;;;;14.41;91.42;95743.16;4378806;32;20235;-59
2022/05/06 01:38:17;;;;;;;4.03;3.70;;;;;;;14.52;90.46;95740.25;4373431;32;20188;-59
2022/05/06 01:40:54;;;;;;;5.03;3.73;;;;;;;14.48;90.95;95741.94;4373554;32;20204;-59
2022/05/06 01:43:24;;;;;;;5.33;3.57;;;;;;;14.43;91.56;95740.97;4368704;32;20254;-59
2022/05/06 01:45:53;;;;;;;4.83;3.77;;;;;;;14.39;91.35;95737.31;4365241;32;20213;-59
2022/05/06 01:48:21;;;;;;;1.97;1.87;;;;;;;14.42;91.75;95742.06;4386062;32;20238;-59
2022/05/06 01:50:48;;;;;;;3.37;2.50;;;;;;;14.47;91.04;95745.69;4388939;32;20212;-59
2022/05/06 01:53:16;;;;;;;3.10;2.20;;;;;;;14.53;91.31;95747.16;4389657;32;20211;-60
2022/05/06 01:55:44;;;;;;;3.13;2.63;;;;;;;14.39;91.77;95749.88;4363884;32;20211;-60
2022/05/06 01:58:10;;;;;;;3.20;2.90;;;;;;;14.39;91.61;95756.00;4377568;32;20206;-59
2022/05/06 02:00:37;;;;;;;3.13;2.93;;;;;;;13.98;92.04;95755.44;4365357;32;20188;-59
2022/05/06 02:05:16;;;;;;;2.50;1.90;;;;;;;14.17;92.50;95753.34;4386039;32;20216;-59
2022/05/06 02:05:56;;;;;;;2.90;2.70;;;;;;;14.22;92.10;95758.56;4386151;32;20224;-59
2022/05/06 02:08:23;;;;;;;3.70;3.23;;;;;;;14.04;91.99;95754.22;4380325;32;20292;-59
2022/05/06 02:10:49;;;;;;;5.50;3.30;;;;;;;14.13;92.86;95755.06;4396639;32;20215;-59
2022/05/06 02:13:14;;;;;;;1.70;1.60;;;;;;;14.16;92.29;95751.78;4372215;32;20196;-57
2022/05/06 02:15:41;;;;;;;4.47;3.17;;;;;;;14.20;92.10;95749.28;4368624;32;20208;-59
2022/05/06 02:18:06;;;;;;;2.30;2.20;;;;;;;14.06;93.11;95746.69;4369321;32;20207;-59
2022/05/06 02:20:33;;;;;;;1.70;1.60;;;;;;;14.20;92.10;95758.09;4383719;32;20291;-59
2022/05/06 02:22:58;;;;;;;3.30;2.70;;;;;;;14.16;91.34;95759.78;4380668;32;20201;-59
2022/05/06 02:25:25;;;;;;;2.50;2.30;;;;;;;14.18;92.27;95751.47;4384986;32;20246;-60
2022/05/06 02:27:51;;;;;;;1.97;1.87;;;;;;;14.18;91.91;95757.59;4381796;32;20235;-59
2022/05/06 02:33:16;;;;;;;2.10;2.00;;;;;;;14.18;91.52;95760.25;4383428;32;20285;-59
2022/05/06 02:35:43;;;;;;;3.27;1.80;;;;;;;14.30;91.48;95749.03;4389535;32;20192;-62
2022/05/06 02:38:10;;;;;;;2.10;1.90;;;;;;;14.21;91.20;95753.53;4377920;32;20200;-59
2022/05/06 02:40:42;;;;;;;3.10;2.07;;;;;;;14.33;91.76;95749.22;4392612;32;20207;-59
2022/05/06 02:43:09;;;;;;;2.40;1.87;;;;;;;14.26;91.23;95751.53;4379385;32;20201;-59
2022/05/06 02:45:35;;;;;;;2.93;2.40;;;;;;;14.16;91.41;95751.78;4357385;32;20267;-59
2022/05/06 02:48:00;;;;;;;1.57;1.50;;;;;;;14.28;92.02;95757.34;4390859;32;20289;-59
2022/05/06 02:50:26;;;;;;;3.70;2.50;;;;;;;14.08;91.13;95755.19;4359703;32;20286;-60
2022/05/06 02:52:52;;;;;;;2.03;1.70;;;;;;;13.97;92.53;95759.19;4367315;32;20189;-59
2022/05/06 02:55:19;;;;;;;2.20;1.83;;;;;;;13.76;92.15;95757.00;4378125;32;20249;-59
2022/05/06 02:57:45;;;;;;;4.53;2.50;;;;;;;13.59;93.27;95751.53;4390728;32;20189;-60
2022/05/06 03:00:14;;;;;;;2.20;2.00;;;;;;;13.77;94.43;95750.56;4392201;32;20215;-60
2022/05/06 03:02:41;;;;;;;1.30;1.27;;;;;;;14.06;93.59;95760.84;4346243;32;20241;-60
2022/05/06 03:05:08;;;;;;;2.27;1.40;;;;;;;13.96;92.23;95753.06;4390759;32;20188;-59
2022/05/06 03:07:35;;;;;;;2.50;2.30;;;;;;;13.96;92.67;95754.94;4360429;32;20271;-59
2022/05/06 03:10:03;;;;;;;2.20;1.90;;;;;;;13.96;92.87;95755.72;4350558;32;20260;-59
2022/05/06 03:12:30;;;;;;;3.27;1.83;;;;;;;14.06;92.92;95752.03;4347957;32;20189;-59
2022/05/06 03:14:58;;;;;;;2.37;1.70;;;;;;;14.00;92.13;95753.25;4373687;32;20191;-64
2022/05/06 03:17:25;;;;;;;2.23;2.00;;;;;;;13.88;92.38;95745.81;4390226;32;20257;-59
2022/05/06 03:19:50;;;;;;;2.63;2.00;;;;;;;13.97;92.62;95743.19;4378188;32;20263;-59
2022/05/06 03:22:17;;;;;;;1.53;1.40;;;;;;;13.94;92.59;95755.25;4383270;32;20215;-59
2022/05/06 03:24:43;;;;;;;1.87;1.50;;;;;;;13.91;91.33;95747.87;4373186;32;20195;-61
2022/05/06 03:29:53;;;;;;;2.20;1.80;;;;;;;14.04;92.31;95748.87;4382429;32;20202;-60
2022/05/06 03:32:20;;;;;;;4.90;2.23;;;;;;;13.95;92.17;95745.38;4379862;32;20185;-59
2022/05/06 03:34:46;;;;;;;1.70;1.50;;;;;;;14.06;92.21;95741.37;4388583;32;20197;-59
2022/05/06 03:37:13;;;;;;;1.60;1.50;;;;;;;14.07;91.63;95742.94;4390558;32;20188;-59
2022/05/06 03:39:38;;;;;;;2.23;2.03;;;;;;;13.90;92.51;95740.16;4391612;32;20184;-59
2022/05/06 03:42:04;;;;;;;2.20;1.83;;;;;;;14.17;92.59;95744.56;4390891;32;20215;-59
2022/05/06 03:44:31;;;;;;;1.70;1.60;;;;;;;14.19;92.29;95748.50;4390312;32;20244;-59
2022/05/06 03:46:57;;;;;;;1.67;1.57;;;;;;;14.24;92.25;95743.03;4383211;32;20192;-59
2022/05/06 03:49:22;;;;;;;2.47;1.77;;;;;;;14.09;91.89;95746.09;4364396;32;20234;-59
2022/05/06 03:51:48;;;;;;;2.80;2.20;;;;;;;14.17;92.57;95745.34;4368392;32;20196;-59
2022/05/06 03:54:14;;;;;;;1.50;1.40;;;;;;;14.10;92.62;95737.78;4378495;32;20261;-60
2022/05/06 03:56:41;;;;;;;3.83;2.03;;;;;;;14.15;91.97;95742.19;4392243;32;20240;-59
2022/05/06 03:59:09;;;;;;;2.30;2.10;;;;;;;14.17;92.62;95742.69;4381053;32;20197;-59
2022/05/06 04:01:36;;;;;;;1.53;1.43;;;;;;;14.11;92.40;95749.25;4376191;32;20224;-60
2022/05/06 04:04:02;;;;;;;4.27;2.00;;;;;;;13.89;91.91;95763.37;4384011;32;20292;-60
2022/05/06 04:06:29;;;;;;;2.73;1.70;;;;;;;14.09;92.74;95762.09;4389418;32;20187;-59
2022/05/06 04:08:54;;;;;;;2.17;2.07;;;;;;;14.16;92.71;95767.78;4382677;32;20255;-60
2022/05/06 04:11:21;;;;;;;1.60;1.50;;;;;;;14.21;91.81;95773.00;4392119;32;20223;-59
2022/05/06 04:13:48;;;;;;;2.00;1.90;;;;;;;14.11;91.52;95770.59;4389199;32;20202;-60
2022/05/06 04:16:14;;;;;;;2.30;1.93;;;;;;;14.09;92.15;95780.78;4389174;32;20200;-59
2022/05/06 04:18:40;;;;;;;3.43;2.63;;;;;;;14.18;92.42;95776.28;4377160;32;20211;-59
2022/05/06 04:23:53;;;;;;;5.60;2.37;;;;;;;14.38;91.09;95786.44;4371384;32;20328;-59
2022/05/06 04:26:21;;;;;;;6.87;2.27;;;;;;;14.27;91.96;95785.13;4367844;32;20208;-59
2022/05/06 04:28:46;;;;;;;7.93;2.23;;;;;;;14.21;92.26;95791.69;4382915;32;20242;-59
2022/05/06 04:31:14;;;;;;;5.63;2.30;;;;;;;14.29;92.05;95808.84;4382838;32;20184;-61
2022/05/06 04:33:40;;;;;;;6.40;2.37;;;;;;;14.33;92.21;95810.63;4366932;32;20184;-59
2022/05/06 04:36:07;;;;;;;2.90;2.20;;;;;;;14.26;92.68;95802.25;4382336;32;20206;-59
2022/05/06 04:38:34;;;;;;;4.90;2.37;;;;;;;14.29;92.09;95804.31;4389493;32;20199;-59
2022/05/06 04:41:01;;;;;;;9.63;2.80;;;;;;;14.43;91.54;95802.37;4352005;32;20193;-59
2022/05/06 04:43:28;;;;;;;11.20;2.70;;;;;;;14.45;91.42;95804.75;4398417;32;20218;-59
2022/05/06 04:45:55;;;;;;;2.87;2.27;;;;;;;14.47;91.63;95801.78;4390679;32;20196;-60
2022/05/06 04:48:22;;;;;;;4.37;2.70;;;;;;;14.36;91.56;95804.66;4377963;32;20251;-59
2022/05/06 04:50:48;;;;;;;4.23;2.53;;;;;;;14.30;91.85;95800.53;4381802;32;20215;-59
2022/05/06 04:53:14;;;;;;;2.80;2.40;;;;;;;14.31;91.78;95802.13;4387064;32;20192;-60
2022/05/06 04:55:46;;;;;;;2.50;2.30;;;;;;;14.28;91.95;95801.94;4387220;32;20282;-59
2022/05/06 04:58:12;;;;;;;3.20;2.50;;;;;;;14.27;91.41;95798.47;4358350;32;20246;-60
2022/05/06 05:00:37;;;;;;;3.00;2.10;;;;;;;14.34;91.54;95795.41;4332151;32;20193;-60
2022/05/06 05:03:04;;;;;;;2.47;2.10;;;;;;;14.39;90.75;95796.03;4374844;32;20193;-60
2022/05/06 05:05:31;;;;;;;2.40;2.10;;;;;;;14.04;91.87;95791.56;4360035;32;20217;-60
2022/05/06 05:07:56;;;;;;;2.67;2.40;;;;;;;13.98;92.12;95795.44;4343070;32;20230;-60
2022/05/06 05:10:27;;;;;;;2.20;2.10;;;;;;;13.91;92.69;95803.09;4379662;32;20193;-60
2022/05/06 05:12:52;;;;;;;2.67;2.47;;;;;;;13.84;92.97;95808.06;4389348;32;20196;-60
2022/05/06 05:15:19;;;;;;;3.47;2.20;;;;;;;14.05;93.22;95811.81;4385072;32;20219;-60
2022/05/06 05:17:49;;;;;;;2.40;2.27;;;;;;;14.23;92.37;95808.19;4389587;32;20172;-60
2022/05/06 05:20:17;;;;;;;3.00;1.93;;;;;;;13.97;91.94;95815.19;4340889;32;20220;-61
2022/05/06 05:22:42;;;;;;;2.03;1.90;;;;;;;14.12;92.12;95814.88;4370014;32;20197;-60
2022/05/06 05:25:09;;;;;;;4.80;2.20;;;;;;;14.26;91.39;95815.59;4412527;32;20237;-60
2022/05/06 05:27:38;;;;;;;3.50;2.13;;;;;;;14.35;90.84;95821.75;4375878;32;20211;-60
2022/05/06 05:30:09;;;;;;;2.13;2.03;;;;;;;14.31;90.39;95820.81;4390454;32;20193;-60
2022/05/06 05:32:35;;;;;;;2.50;2.30;;;;;;;14.41;90.32;95823.25;4385027;32;20198;-61
2022/05/06 05:35:02;;;;;;;2.17;2.00;;;;;;;14.27;90.24;95822.50;4376540;32;20227;-60
2022/05/06 05:37:27;;;;;;;2.97;1.93;;;;;;;14.35;90.85;95823.63;4365473;32;20188;-60
2022/05/06 05:39:53;;;;;;;2.60;2.30;;;;;;;14.40;90.63;95827.00;4374808;32;20242;-59
2022/05/06 05:42:24;;;;;;;2.57;2.47;;;;;;;14.24;91.21;95820.44;4370944;32;20201;-62
2022/05/06 05:50:20;;;;;;;3.13;2.17;;;;;;;14.25;91.38;95814.00;4382399;32;20210;-59
2022/05/06 05:52:46;;;;;;;2.93;2.13;;;;;;;14.43;91.39;95814.94;4397746;32;20199;-60
2022/05/06 05:55:12;;;;;;;4.00;2.70;;;;;;;14.33;91.62;95809.84;4383083;32;20196;-60
2022/05/06 05:57:39;;;;;;;3.23;2.23;;;;;;;14.39;90.61;95812.06;4358744;32;20204;-60
2022/05/06 06:00:05;;;;;;;3.43;2.97;;;;;;;14.49;90.13;95820.94;4372409;32;20330;-60
2022/05/06 06:02:33;;;;;;;3.20;2.10;;;;;;;14.30;89.60;95821.09;4381120;32;20277;-60
2022/05/06 06:04:58;;;;;;;2.00;1.90;;;;;;;14.45;89.37;95823.44;4380930;32;20206;-60
2022/05/06 06:07:25;;;;;;;2.00;1.90;;;;;;;14.53;89.01;95824.59;4387727;32;20260;-60
2022/05/06 06:09:51;;;;;;;2.27;2.07;;;;;;;14.56;88.86;95822.06;4369255;32;20196;-60
2022/05/06 06:12:18;;;;;;;1.90;1.80;;;;;;;14.60;88.25;95827.59;4348935;32;20230;-60
2022/05/06 06:14:45;;;;;;;3.00;2.00;;;;;;;14.51;88.74;95819.53;4369659;32;20196;-60
2022/05/06 06:17:12;;;;;;;2.13;2.00;;;;;;;14.55;89.32;95823.16;4378723;32;20267;-60
2022/05/06 06:19:37;;;;;;;2.97;2.27;;;;;;;14.61;89.59;95821.16;4369569;32;20220;-60
2022/05/06 06:22:02;;;;;;;2.37;2.10;;;;;;;14.55;89.40;95819.72;4353116;32;20280;-59
2022/05/06 06:24:30;;;;;;;1.70;1.60;;;;;;;14.66;88.70;95816.47;4346143;32;20210;-60
2022/05/06 06:26:58;;;;;;;2.70;1.67;;;;;;;14.62;88.19;95830.75;4399996;32;20192;-60
2022/05/06 06:29:25;;;;;;;1.77;1.57;;;;;;;14.79;87.76;95823.59;4359888;32;20201;-60
2022/05/06 06:31:51;;;;;;;1.70;1.60;;;;;;;14.54;88.42;95820.81;4381250;32;20235;-59
2022/05/06 06:34:16;;;;;;;2.83;1.70;;;;;;;14.58;88.04;95819.09;4373333;32;20211;-59
2022/05/06 06:36:41;;;;;;;5.73;2.33;;;;;;;14.51;88.28;95824.87;4374998;32;20215;-59
2022/05/06 06:39:07;;;;;;;6.90;2.27;;;;;;;14.47;88.30;95825.78;4389600;32;20208;-60
2022/05/06 06:41:34;;;;;;;18.53;3.23;;;;;;;14.56;88.57;95823.94;4366707;32;20192;-60
2022/05/06 06:44:00;;;;;;;11.53;2.10;;;;;;;14.67;88.67;95825.28;4346457;32;20188;-60
2022/05/06 06:46:26;;;;;;;13.00;3.50;;;;;;;14.37;88.28;95826.78;4343275;32;20208;-60
2022/05/06 06:48:52;;;;;;;12.47;2.70;;;;;;;14.53;88.12;95828.03;4379561;32;20230;-60
2022/05/06 06:51:18;;;;;;;8.17;2.87;;;;;;;14.63;87.89;95829.66;4361188;32;20192;-60
2022/05/06 06:53:43;;;;;;;13.87;3.30;;;;;;;14.64;88.38;95825.88;4355099;32;20219;-59
2022/05/06 06:56:09;;;;;;;11.83;2.77;;;;;;;14.62;87.38;95815.50;4389968;32;20188;-59
2022/05/06 06:58:34;;;;;;;7.73;2.40;;;;;;;14.65;87.89;95816.78;4380286;32;20185;-60
2022/05/06 07:01:00;;;;;;;2.87;2.10;;;;;;;14.50;87.63;95825.19;4357057;32;20220;-60
2022/05/06 07:03:27;;;;;;;9.40;2.63;;;;;;;14.54;87.97;95831.50;4381848;32;20223;-59
2022/05/06 07:14:07;;;;;;;7.13;6.47;;;;;;;14.57;86.70;95836.19;4382807;32;20211;-59
2022/05/06 07:16:33;;;;;;;3.33;2.80;;;;;;;14.48;88.11;95836.16;4391338;32;20306;-60
2022/05/06 07:18:59;;;;;;;6.33;2.57;;;;;;;14.59;87.77;95834.03;4375838;32;20244;-60
2022/05/06 07:21:25;;;;;;;4.30;2.23;;;;;;;14.68;88.15;95832.19;4364515;32;20189;-60
2022/05/06 07:23:50;;;;;;;3.97;2.77;;;;;;;14.64;87.92;95834.69;4393240;32;20245;-60
2022/05/06 07:26:17;;;;;;;2.40;2.03;;;;;;;14.64;88.07;95837.34;4388706;32;20188;-60
2022/05/06 07:28:42;;;;;;;4.03;2.30;;;;;;;14.67;87.60;95836.75;4379753;32;20197;-61
2022/05/06 07:31:08;;;;;;;2.00;1.90;;;;;;;14.86;86.91;95839.19;4372441;32;20215;-60
2022/05/06 07:33:33;;;;;;;3.73;2.03;;;;;;;14.81;86.78;95846.56;4383282;32;20235;-60
2022/05/06 07:36:03;;;;;;;2.50;2.30;;;;;;;14.75;86.98;95848.59;4389898;32;20188;-60
2022/05/06 07:38:31;;;;;;;2.77;2.57;;;;;;;14.67;87.00;95850.09;4370258;32;20188;-61
2022/05/06 07:40:58;;;;;;;2.27;2.17;;;;;;;14.66;87.94;95839.72;4354639;32;20279;-60
2022/05/06 07:43:24;;;;;;;2.33;2.10;;;;;;;14.80;86.69;95845.75;4400266;32;20214;-61
2022/05/06 07:45:52;;;;;;;2.97;2.20;;;;;;;14.96;85.82;95843.50;4392348;32;20262;-60
2022/05/06 07:48:19;;;;;;;2.43;2.23;;;;;;;15.06;85.38;95837.88;4392612;32;20185;-60
2022/05/06 07:50:47;;;;;;;1.80;1.70;;;;;;;15.11;84.98;95846.53;4381151;32;20207;-58
2022/05/06 07:53:16;;;;;;;3.10;2.23;;;;;;;15.24;84.17;95838.72;4380118;32;20195;-57
2022/05/06 07:55:42;;;;;;;2.43;2.27;;;;;;;15.40;83.73;95848.66;4373050;32;20184;-60
2022/05/06 07:58:09;;;;;;;2.33;2.00;;;;;;;15.51;82.58;95849.19;4364212;32;20189;-59
2022/05/06 08:00:36;;;;;;;2.43;2.23;;;;;;;15.57;82.41;95853.31;4380263;32;20230;-60
2022/05/06 08:05:56;;;;;;;2.40;2.30;;;;;;;15.28;83.71;95856.50;4362025;32;20248;-63
2022/05/06 08:08:22;;;;;;;2.47;2.27;;;;;;;14.95;82.87;95856.06;4363146;32;20285;-61
2022/05/06 08:10:48;;;;;;;2.60;2.47;;;;;;;14.78;83.73;95861.31;4378327;32;20188;-60
2022/05/06 08:13:14;;;;;;;8.07;5.07;;;;;;;14.72;84.80;95857.22;4390910;32;20225;-59
2022/05/06 08:15:42;;;;;;;4.20;3.80;;;;;;;14.49;85.68;95856.44;4384015;32;20224;-59
2022/05/06 08:18:09;;;;;;;3.50;3.20;;;;;;;14.54;86.02;95863.53;4379697;32;20218;-60
2022/05/06 08:20:38;;;;;;;3.70;3.50;;;;;;;14.57;85.69;95863.69;4389602;32;20228;-60
2022/05/06 08:23:04;;;;;;;4.30;4.07;;;;;;;14.32;87.21;95864.31;4387194;32;20286;-60
2022/05/06 08:25:30;;;;;;;4.40;4.20;;;;;;;14.21;88.22;95855.72;4402504;32;20263;-60
2022/05/06 08:27:57;;;;;;;4.17;3.87;;;;;;;14.10;88.89;95857.06;4391363;32;20215;-59
2022/05/06 08:30:24;;;;;;;4.60;4.30;;;;;;;14.05;89.84;95857.97;4389251;32;20192;-59
2022/05/06 08:32:51;;;;;;;5.13;4.37;;;;;;;14.13;89.45;95858.34;4388362;32;20201;-59
2022/05/06 08:35:19;;;;;;;4.87;4.50;;;;;;;14.01;90.70;95857.00;4353471;32;20205;-60
2022/05/06 08:37:48;;;;;;;5.33;4.93;;;;;;;13.99;92.17;95864.50;4372156;32;20211;-59
2022/05/06 08:40:32;;;;;;;4.93;4.53;;;;;;;14.03;90.59;95859.34;4358937;32;20215;-59
2022/05/06 08:42:58;;;;;;;5.47;4.97;;;;;;;14.13;90.95;95859.12;4352337;32;20241;-59
2022/05/06 08:50:57;;;;;;;6.90;6.30;;;;;;;13.86;92.04;95870.66;4388356;32;20282;-60
2022/05/06 08:53:44;;;;;;;7.20;6.70;;;;;;;13.85;92.34;95868.31;4381528;32;20220;-60
2022/05/06 08:56:09;;;;;;;7.40;6.90;;;;;;;13.78;92.73;95876.69;4372028;32;20245;-60
2022/05/06 08:58:40;;;;;;;9.97;7.97;;;;;;;13.64;94.03;95875.94;4388591;32;20242;-60
2022/05/06 09:01:16;;;;;;;10.80;10.00;;;;;;;13.62;94.38;95876.25;4366271;32;20311;-60
2022/05/06 09:03:47;;;;;;;11.17;10.17;;;;;;;13.63;94.46;95871.69;4350465;32;20207;-60
2022/05/06 09:06:21;;;;;;;10.43;9.43;;;;;;;13.66;95.05;95881.78;4371593;32;20192;-62
2022/05/06 09:08:51;;;;;;;10.00;9.30;;;;;;;13.63;95.16;95880.50;4365632;32;20237;-60
2022/05/06 09:12:40;;;;;;;23.43;18.33;;;;;;;13.75;94.88;95879.97;4372669;32;20211;-60
2022/05/06 09:14:07;;;;;;;11.00;10.00;;;;;;;13.67;95.60;95880.69;4397864;32;20255;-60
2022/05/06 09:16:47;;;;;;;10.47;9.67;;;;;;;13.77;94.71;95886.56;4366796;32;22216;-60
2022/05/06 09:19:24;;;;;;;11.20;10.30;;;;;;;13.69;95.10;95889.97;4376545;32;20188;-61
2022/05/06 09:22:06;;;;;;;11.07;10.23;;;;;;;13.63;95.36;95887.69;4386211;32;20200;-60
2022/05/06 09:24:34;;;;;;;11.47;10.53;;;;;;;13.71;95.86;95890.47;4390152;32;20250;-60
2022/05/06 09:27:09;;;;;;;13.27;12.20;;;;;;;13.81;95.76;95899.31;4389139;32;20204;-60
2022/05/06 09:29:54;;;;;;;13.00;11.90;;;;;;;13.67;95.38;95894.81;4372541;32;20210;-60
2022/05/06 09:32:32;;;;;;;13.83;12.60;;;;;;;13.73;95.56;95893.59;4371769;32;20200;-60
2022/05/06 09:35:18;;;;;;;11.87;5.70;;;;;;;13.75;95.22;95898.63;4360208;32;20237;-47
2022/05/06 09:37:46;;;;;;;7.23;6.53;;;;;;;14.30;95.92;95896.62;4368525;32;20192;-46
2022/05/06 09:40:20;;;;;;;9.80;8.90;;;;;;;16.43;85.72;95882.81;4317600;32;20215;-44
2022/05/06 09:43:06;;;;;;;9.60;8.63;;;;;;;17.07;81.50;95890.91;4344815;32;20223;-48
2022/05/06 09:45:38;;;;;;;8.47;7.87;;;;;;;17.42;78.90;95893.50;4338390;32;20236;-45
2022/05/06 09:48:09;;;;;;;9.93;8.93;;;;;;;17.82;75.90;95902.00;4384035;32;20223;-45
2022/05/06 09:50:48;;;;;;;10.13;9.43;;;;;;;18.18;74.44;95899.53;4359691;32;20274;-44
2022/05/06 09:53:16;;;;;;;11.33;10.27;;;;;;;17.18;77.71;95894.06;4317179;32;20204;-46
2022/05/06 09:55:47;;;;;;;12.10;11.20;;;;;;;17.47;76.80;95901.34;4370110;32;20193;-59
2022/05/06 09:58:15;;;;;;;14.13;13.03;;;;;;;16.44;79.87;95903.13;4369319;32;20188;-59
2022/05/06 10:00:42;;;;;;;14.73;13.07;;;;;;;15.89;82.87;95915.53;4362592;32;20213;-59
2022/05/06 10:03:13;;;;;;;15.33;13.93;;;;;;;15.15;86.59;95910.88;4376610;32;20188;-60
2022/05/06 10:05:40;;;;;;;14.33;13.20;;;;;;;14.92;88.57;95912.00;4356590;32;20264;-59
2022/05/06 10:08:13;;;;;;;15.47;14.13;;;;;;;14.58;89.21;95908.00;4366222;32;20282;-59
2022/05/06 10:10:44;;;;;;;14.87;13.77;;;;;;;14.34;91.24;95907.50;4352547;32;20196;-60
2022/05/06 10:13:22;;;;;;;15.37;13.93;;;;;;;14.15;91.40;95904.97;4369624;32;20215;-57
2022/05/06 10:15:54;;;;;;;17.57;15.90;;;;;;;14.04;91.99;95908.97;4364531;32;20218;-60
2022/05/06 10:18:36;;;;;;;16.17;14.77;;;;;;;13.94;93.00;95906.50;4345374;32;20204;-56
2022/05/06 10:21:06;;;;;;;15.63;14.43;;;;;;;13.83;94.34;95910.47;4366950;32;20305;-59
2022/05/06 10:23:49;;;;;;;16.57;15.27;;;;;;;13.89;93.55;95906.63;4352496;32;20201;-58
2022/05/06 10:26:34;;;;;;;17.33;15.83;;;;;;;13.69;94.39;95919.31;4354785;32;20191;-62
2022/05/06 10:35:02;;;;;;;18.03;16.47;;;;;;;13.56;95.79;95909.41;4362980;32;20291;-58
2022/05/06 10:37:45;;;;;;;18.93;17.33;;;;;;;13.51;96.00;95906.84;4345536;32;20198;-58
2022/05/06 10:40:31;;;;;;;18.43;16.93;;;;;;;13.49;96.61;95905.59;4300698;32;20216;-57
2022/05/06 10:42:57;;;;;;;18.70;17.00;;;;;;;13.55;96.74;95915.03;4380296;32;20192;-58
2022/05/06 10:45:35;;;;;;;17.37;15.77;;;;;;;13.70;96.20;95906.75;4334757;32;20188;-58
2022/05/06 10:48:22;;;;;;;17.97;16.23;;;;;;;13.60;95.56;95909.63;4338309;32;20219;-58
2022/05/06 10:50:49;;;;;;;28.80;26.30;;;;;;;13.42;96.63;95908.63;4369720;32;20047;-58
2022/05/06 10:53:34;;;;;;;50.53;39.43;;;;;;;13.33;98.04;95911.19;4360828;32;20200;-58
2022/05/06 10:56:09;;;;;;;22.93;19.87;;;;;;;13.37;98.27;95911.41;4379080;32;20200;-58
2022/05/06 10:58:34;;;;;;;21.13;19.03;;;;;;;13.33;97.86;95913.06;4379304;32;20221;-58
2022/05/06 11:01:01;;;;;;;30.10;26.53;;;;;;;13.39;97.24;95910.00;4347824;32;20192;-58
2022/05/06 11:03:27;;;;;;;22.83;20.63;;;;;;;13.44;97.43;95903.81;4336884;32;20193;-59
2022/05/06 11:05:53;;;;;;;25.63;22.37;;;;;;;13.43;97.29;95893.44;4350817;32;20200;-58
2022/05/06 11:08:21;;;;;;;27.80;24.83;;;;;;;13.50;97.68;95915.16;4345581;32;20215;-58
2022/05/06 11:10:49;;;;;;;62.90;45.50;;;;;;;13.57;97.17;95913.66;4357484;32;20225;-58
2022/05/06 11:13:17;;;;;;;27.17;24.27;;;;;;;13.41;96.81;95910.50;4391418;32;20210;-59
2022/05/06 11:15:44;;;;;;;29.43;24.00;;;;;;;13.56;96.98;95914.75;4334958;32;20235;-58
2022/05/06 11:18:10;;;;;;;21.93;19.83;;;;;;;13.56;96.58;95914.75;4348164;32;20201;-58
2022/05/06 11:20:46;;;;;;;19.23;17.63;;;;;;;13.48;97.03;95907.47;4347105;32;20260;-58
2022/05/06 11:23:13;;;;;;;20.37;18.67;;;;;;;13.52;97.12;95900.44;4343865;32;20219;-59
2022/05/06 11:25:47;;;;;;;21.10;19.00;;;;;;;13.49;97.30;95903.72;4371616;32;20227;-59
2022/05/06 11:28:21;;;;;;;19.40;17.77;;;;;;;13.62;97.41;95910.91;4346291;32;20200;-58
2022/05/06 11:30:52;;;;;;;18.47;16.77;;;;;;;13.63;97.31;95903.69;4364332;32;20238;-59
2022/05/06 11:33:25;;;;;;;19.30;17.53;;;;;;;13.82;96.77;95898.22;4373199;32;20211;-59
2022/05/06 11:36:01;;;;;;;18.07;16.57;;;;;;;13.94;96.53;95903.84;4379437;32;20247;-59
2022/05/06 11:38:54;;;;;;;18.57;17.03;;;;;;;14.00;96.27;95902.63;4376129;32;20213;-58
2022/05/06 11:41:20;;;;;;;18.90;17.13;;;;;;;14.07;95.61;95903.03;4373654;32;20200;-59
2022/05/06 11:43:47;;;;;;;19.47;17.87;;;;;;;14.12;95.03;95912.81;4368091;32;20191;-58
2022/05/06 11:49:06;;;;;;;19.60;17.87;;;;;;;13.93;96.37;95902.25;4313622;32;20224;-61
2022/05/06 11:51:52;;;;;;;20.03;17.97;;;;;;;13.99;97.00;95896.50;4370591;32;20201;-61
2022/05/06 11:54:19;;;;;;;19.20;17.60;;;;;;;14.10;97.14;95897.09;4347192;32;20222;-59
2022/05/06 11:56:46;;;;;;;17.07;15.67;;;;;;;14.14;96.51;95897.25;4361219;32;20243;-59
2022/05/06 11:59:12;;;;;;;17.80;16.30;;;;;;;14.24;95.83;95897.84;4346847;32;20193;-59
2022/05/06 12:01:39;;;;;;;18.17;16.57;;;;;;;14.18;95.23;95898.25;4311835;32;20249;-59
2022/05/06 12:04:09;;;;;;;17.53;15.83;;;;;;;14.20;95.56;95898.72;4319305;32;20195;-59
2022/05/06 12:06:47;;;;;;;17.90;16.30;;;;;;;14.15;95.69;95894.28;4380344;32;20275;-58
2022/05/06 12:09:21;;;;;;;18.87;17.27;;;;;;;14.03;96.16;95897.50;4386868;32;20203;-58
2022/05/06 12:12:01;;;;;;;18.50;16.83;;;;;;;13.92;96.45;95896.16;4385150;32;20232;-62
2022/05/06 12:14:35;;;;;;;18.63;17.13;;;;;;;13.97;96.45;95898.69;4324265;32;20260;-56
2022/05/06 12:17:10;;;;;;;19.07;17.47;;;;;;;14.00;96.78;95900.75;4325764;32;20223;-59